Time;durP1;ratioP1;P1;durP2;ratioP2;P2;SDS_P1;SDS_P2;PMS_P1;PMS_P2;Temp;Humidity;BMP_temperature;BMP_pressure;BME280_temperature;BME280_humidity;BME280_pressure;Samples;Min_cycle;Max_cycle;Signal;HPM_P1;HPM_P2
2022/02/06 00:00:14;;;;;;;6.10;2.03;;;;;;;5.95;95.16;100731.09;680498;28;3545;-55
2022/02/06 00:00:35;;;;;;;8.20;2.00;;;;;;;5.93;94.42;100733.66;677731;28;1467;-55
2022/02/06 00:00:59;;;;;;;6.50;2.08;;;;;;;5.96;94.18;100740.63;677539;28;4467;-56
2022/02/06 00:01:20;;;;;;;6.50;1.83;;;;;;;6.00;93.89;100736.41;680227;28;1314;-56
2022/02/06 00:01:41;;;;;;;8.27;1.80;;;;;;;5.95;93.82;100724.19;680229;28;1423;-55
2022/02/06 00:02:01;;;;;;;6.43;1.83;;;;;;;5.96;94.15;100718.13;676730;28;1419;-50
2022/02/06 00:02:27;;;;;;;5.65;1.90;;;;;;;5.92;95.37;100721.53;679809;28;1455;-57
2022/02/06 00:02:49;;;;;;;5.78;1.60;;;;;;;5.96;94.79;100719.88;680812;28;4468;-52
2022/02/06 00:03:11;;;;;;;4.65;1.60;;;;;;;5.96;94.85;100719.88;680757;28;1327;-54
2022/02/06 00:03:32;;;;;;;7.63;1.95;;;;;;;5.90;96.16;100724.97;680016;28;2183;-56
2022/02/06 00:03:57;;;;;;;7.07;1.88;;;;;;;5.91;96.89;100724.09;677560;28;4585;-58
2022/02/06 00:04:18;;;;;;;8.15;1.92;;;;;;;5.92;96.96;100723.25;679950;28;1317;-52
2022/02/06 00:04:41;;;;;;;7.38;1.75;;;;;;;5.95;96.66;100720.72;678337;29;1458;-55
2022/02/06 00:05:02;;;;;;;6.53;1.63;;;;;;;5.90;97.11;100712.88;679061;28;1364;-52
2022/02/06 00:05:23;;;;;;;5.70;1.60;;;;;;;5.88;96.28;100719.75;679801;28;3227;-54
2022/02/06 00:05:45;;;;;;;6.37;1.60;;;;;;;5.78;97.47;100710.94;679654;28;3705;-54
2022/02/06 00:06:07;;;;;;;6.22;1.70;;;;;;;5.74;98.33;100716.94;681638;28;1462;-53
2022/02/06 00:06:31;;;;;;;6.05;1.80;;;;;;;5.71;98.16;100721.22;681682;28;1446;-53
2022/02/06 00:06:52;;;;;;;4.32;1.70;;;;;;;5.64;99.11;100717.66;679804;28;4424;-53
2022/02/06 00:07:13;;;;;;;7.78;2.00;;;;;;;5.63;98.64;100713.28;680448;28;1525;-53
2022/02/06 00:07:33;;;;;;;7.10;1.80;;;;;;;5.59;98.74;100714.09;680582;28;1493;-52
2022/02/06 00:07:54;;;;;;;5.10;1.70;;;;;;;5.59;97.77;100724.47;682412;28;1422;-55
2022/02/06 00:08:14;;;;;;;5.15;1.83;;;;;;;5.56;99.63;100721.84;680269;28;3163;-53
2022/02/06 00:08:37;;;;;;;5.47;1.70;;;;;;;5.65;100.00;100716.81;681354;28;3963;-56
2022/02/06 00:08:58;;;;;;;6.53;1.73;;;;;;;5.76;98.47;100723.03;680398;28;1918;-52
2022/02/06 00:09:19;;;;;;;7.20;1.87;;;;;;;5.74;98.02;100722.13;680473;28;1431;-54
2022/02/06 00:09:39;;;;;;;6.60;1.80;;;;;;;5.76;98.31;100719.53;681007;28;1263;-51
2022/02/06 00:10:00;;;;;;;5.45;1.95;;;;;;;5.78;97.81;100713.53;680093;28;4410;-55
2022/02/06 00:10:20;;;;;;;7.77;2.30;;;;;;;5.76;97.76;100711.75;682578;28;1803;-57
2022/02/06 00:10:41;;;;;;;7.97;2.10;;;;;;;5.80;98.05;100709.25;681501;28;1686;-54
2022/02/06 00:11:01;;;;;;;7.53;2.17;;;;;;;5.92;98.21;100710.28;679782;28;2698;-55
2022/02/06 00:11:21;;;;;;;6.40;2.03;;;;;;;5.89;97.25;100710.25;682269;28;2654;-57
2022/02/06 00:11:42;;;;;;;5.87;1.87;;;;;;;5.91;96.76;100705.94;681346;28;2000;-57
2022/02/06 00:12:02;;;;;;;7.37;1.70;;;;;;;5.79;97.76;100711.84;681675;28;1941;-53
2022/02/06 00:12:22;;;;;;;6.38;1.73;;;;;;;5.86;98.10;100711.06;681156;28;1780;-55
2022/02/06 00:12:43;;;;;;;6.10;1.87;;;;;;;5.78;98.99;100703.16;681771;28;1232;-57
2022/02/06 00:13:04;;;;;;;6.03;2.00;;;;;;;5.80;98.64;100711.84;680512;28;4392;-52
2022/02/06 00:13:24;;;;;;;4.88;1.88;;;;;;;5.74;99.02;100703.97;682131;28;1672;-52
2022/02/06 00:13:45;;;;;;;4.60;1.90;;;;;;;5.71;99.26;100698.72;678236;29;1901;-53
2022/02/06 00:14:05;;;;;;;4.93;1.73;;;;;;;5.69;98.79;100697.84;679613;28;2129;-53
2022/02/06 00:14:25;;;;;;;5.83;1.97;;;;;;;5.63;98.90;100698.63;678502;29;4501;-56
2022/02/06 00:14:46;;;;;;;7.00;2.00;;;;;;;5.63;99.88;100698.63;678168;29;1521;-56
2022/02/06 00:15:07;;;;;;;5.67;1.97;;;;;;;5.64;99.05;100709.88;676459;29;2132;-57
2022/02/06 00:15:27;;;;;;;6.72;1.88;;;;;;;5.62;99.80;100690.78;676809;29;2162;-55
2022/02/06 00:15:47;;;;;;;7.00;1.97;;;;;;;5.56;100.00;100688.13;678458;28;4532;-53
2022/02/06 00:16:08;;;;;;;8.27;2.03;;;;;;;5.49;100.00;100692.31;679157;28;1441;-55
2022/02/06 00:16:29;;;;;;;6.13;1.80;;;;;;;5.48;100.00;100689.72;678744;29;1682;-53
2022/02/06 00:16:49;;;;;;;5.63;1.77;;;;;;;5.51;99.50;100689.75;679367;28;3563;-55
2022/02/06 00:17:10;;;;;;;6.20;2.07;;;;;;;5.57;100.00;100689.88;681333;28;3835;-55
2022/02/06 00:17:31;;;;;;;6.30;1.95;;;;;;;5.56;99.80;100695.91;681523;28;1533;-54
2022/02/06 00:17:51;;;;;;;6.95;2.00;;;;;;;5.50;100.00;100688.00;680772;28;1706;-55
2022/02/06 00:18:12;;;;;;;7.70;2.07;;;;;;;5.45;100.00;100694.00;681355;28;1351;-54
2022/02/06 00:18:32;;;;;;;5.75;2.28;;;;;;;5.44;100.00;100696.56;681536;28;1511;-57
2022/02/06 00:18:52;;;;;;;5.70;2.07;;;;;;;5.41;100.00;100687.03;681538;28;4458;-54
2022/02/06 00:19:13;;;;;;;6.40;1.90;;;;;;;5.45;100.00;100694.00;681168;28;1895;-53
2022/02/06 00:19:33;;;;;;;5.93;2.17;;;;;;;5.44;100.00;100691.38;681568;28;3595;-56
2022/02/06 00:19:54;;;;;;;6.50;2.30;;;;;;;5.45;100.00;100686.25;679938;28;4282;-53
2022/02/06 00:20:15;;;;;;;7.17;2.30;;;;;;;5.48;100.00;100687.97;680985;28;1913;-55
2022/02/06 00:20:46;;;;;;;7.25;2.13;;;;;;;5.61;99.47;100689.94;681686;28;2783;-58
2022/02/06 00:21:12;;;;;;;6.78;2.00;;;;;;;5.61;99.58;100684.75;681157;28;1399;-57
2022/02/06 00:21:34;;;;;;;6.25;1.90;;;;;;;5.63;100.00;100687.34;680631;28;1508;-54
2022/02/06 00:21:54;;;;;;;6.63;1.98;;;;;;;5.60;99.83;100692.50;681217;28;4607;-55
2022/02/06 00:22:27;;;;;;;6.30;1.93;;;;;;;5.54;100.00;100684.59;677510;28;1351;-55
2022/02/06 00:22:53;;;;;;;5.95;1.80;;;;;;;5.61;99.71;100676.09;678875;28;4252;-55
2022/02/06 00:23:15;;;;;;;5.97;2.10;;;;;;;5.56;99.86;100683.78;677351;28;1879;-58
2022/02/06 00:23:35;;;;;;;6.13;2.00;;;;;;;5.53;99.51;100673.38;680931;28;1533;-57
2022/02/06 00:23:56;;;;;;;6.83;1.87;;;;;;;5.53;99.84;100675.97;682067;28;1767;-56
2022/02/06 00:24:24;;;;;;;6.78;1.80;;;;;;;5.54;99.54;100687.19;682163;28;1375;-56
2022/02/06 00:24:54;;;;;;;6.88;1.98;;;;;;;5.50;99.93;100685.41;681175;28;5371;-58
2022/02/06 00:25:56;;;;;;;15.57;2.83;;;;;;;5.51;99.78;100671.59;680973;28;4128;-55
2022/02/06 00:26:39;;;;;;;8.73;2.15;;;;;;;5.56;99.75;100676.00;681151;28;1312;-54
2022/02/06 00:27:07;;;;;;;7.45;2.40;;;;;;;5.55;99.50;100679.47;680552;28;1004;-51
2022/02/06 00:27:38;;;;;;;8.27;2.20;;;;;;;5.51;100.00;100676.78;680984;28;1279;-52
2022/02/06 00:28:58;;;;;;;6.80;2.00;;;;;;;5.49;100.00;100675.91;670876;29;1825;-52
2022/02/06 00:29:25;;;;;;;6.32;1.95;;;;;;;5.62;100.00;100675.22;671296;29;1774;-56
2022/02/06 00:29:53;;;;;;;6.85;2.17;;;;;;;5.76;99.15;100667.66;678528;29;1856;-52
2022/02/06 00:30:41;;;;;;;6.90;2.13;;;;;;;5.71;99.31;100677.13;680521;28;1781;-52
2022/02/06 00:31:16;;;;;;;6.88;2.13;;;;;;;5.65;98.81;100675.31;679254;28;4555;-51
2022/02/06 00:32:01;;;;;;;7.75;2.00;;;;;;;5.56;99.94;100669.97;680912;28;1497;-53
2022/02/06 00:32:30;;;;;;;9.65;2.17;;;;;;;5.54;99.49;100663.88;678141;28;1752;-53
2022/02/06 00:33:03;;;;;;;7.28;2.30;;;;;;;5.48;99.87;100668.97;676395;29;1337;-51
2022/02/06 00:35:18;;;;;;;6.78;1.80;;;;;;;5.67;98.25;100660.63;676597;29;1786;-52
2022/02/06 00:39:12;;;;;;;6.07;1.90;;;;;;;5.71;97.87;100654.63;682152;28;4824;-53
2022/02/06 00:39:32;;;;;;;5.47;1.80;;;;;;;5.72;97.67;100661.56;680009;28;3390;-53
2022/02/06 00:39:54;;;;;;;4.53;2.00;;;;;;;5.63;97.30;100649.34;678919;28;4486;-56
2022/02/06 00:40:16;;;;;;;5.40;1.88;;;;;;;5.62;98.39;100660.56;678158;28;1993;-53
2022/02/06 00:41:29;;;;;;;6.25;1.90;;;;;;;5.57;98.67;100643.19;678694;29;1205;-55
2022/02/06 00:41:50;;;;;;;6.95;1.83;;;;;;;5.67;97.98;100641.59;680193;28;1482;-58
2022/02/06 00:42:11;;;;;;;7.27;2.10;;;;;;;5.71;97.98;100653.78;680129;28;1359;-54
2022/02/06 00:42:31;;;;;;;6.72;2.10;;;;;;;5.69;97.70;100645.09;680732;28;3565;-56
2022/02/06 00:42:52;;;;;;;5.57;1.93;;;;;;;5.68;98.37;100649.41;680943;28;4600;-58
2022/02/06 00:43:12;;;;;;;5.75;2.15;;;;;;;5.73;97.71;100647.75;680990;28;1208;-55
2022/02/06 00:43:32;;;;;;;7.13;2.30;;;;;;;5.66;98.34;100640.72;682179;28;1411;-52
2022/02/06 00:43:53;;;;;;;7.50;1.90;;;;;;;5.64;98.44;100642.44;681197;28;1407;-57
2022/02/06 00:44:14;;;;;;;6.72;1.98;;;;;;;5.62;98.29;100649.28;680707;28;1359;-54
2022/02/06 00:44:34;;;;;;;5.27;1.90;;;;;;;5.60;98.61;100641.50;682579;28;1412;-54
2022/02/06 00:44:55;;;;;;;5.18;2.03;;;;;;;5.71;98.34;100649.44;680613;28;1363;-53
2022/02/06 00:45:15;;;;;;;7.20;2.00;;;;;;;5.66;98.73;100648.50;678351;28;4528;-54
2022/02/06 00:45:36;;;;;;;7.47;2.28;;;;;;;5.65;98.51;100644.19;679701;28;1229;-56
2022/02/06 00:45:56;;;;;;;6.43;2.27;;;;;;;5.62;98.00;100644.09;680571;28;5383;-53
2022/02/06 00:46:17;;;;;;;6.20;1.92;;;;;;;5.59;98.03;100646.66;678666;28;1129;-56
2022/02/06 00:46:39;;;;;;;6.50;2.03;;;;;;;5.56;98.52;100642.31;675944;29;1515;-55
2022/02/06 00:47:02;;;;;;;7.53;2.20;;;;;;;5.54;98.79;100645.72;676456;29;1396;-53
2022/02/06 00:47:25;;;;;;;6.63;2.05;;;;;;;5.58;98.52;100639.72;673990;29;1816;-55
2022/02/06 00:47:46;;;;;;;7.00;2.13;;;;;;;5.62;98.51;100641.53;672696;29;1627;-53
2022/02/06 00:48:06;;;;;;;7.37;2.10;;;;;;;5.66;98.47;100647.63;674085;29;3125;-56
2022/02/06 00:48:28;;;;;;;8.23;2.07;;;;;;;5.63;98.23;100643.28;676428;29;1685;-53
2022/02/06 00:48:55;;;;;;;5.97;1.90;;;;;;;5.63;98.39;100644.16;676143;29;4361;-53
2022/02/06 00:49:26;;;;;;;4.97;1.88;;;;;;;5.70;98.13;100642.50;677763;28;1261;-54
2022/02/06 00:49:48;;;;;;;5.47;1.83;;;;;;;5.87;96.58;100639.28;681115;28;1545;-56
2022/02/06 00:50:08;;;;;;;7.47;2.35;;;;;;;5.92;95.76;100635.03;680287;28;1253;-56
2022/02/06 00:50:30;;;;;;;6.70;1.83;;;;;;;5.91;95.83;100633.28;677381;29;1557;-55
2022/02/06 00:51:01;;;;;;;6.30;1.90;;;;;;;5.86;96.41;100637.56;676481;28;3336;-56
2022/02/06 00:52:15;;;;;;;9.52;2.55;;;;;;;5.84;96.54;100629.72;668878;29;4952;-55
2022/02/06 00:52:41;;;;;;;6.60;2.10;;;;;;;5.80;96.67;100636.63;670045;29;1519;-55
2022/02/06 00:53:06;;;;;;;4.50;1.70;;;;;;;5.82;96.78;100635.78;679613;28;1276;-53
2022/02/06 00:53:26;;;;;;;5.85;1.90;;;;;;;5.78;96.85;100638.31;682254;28;1403;-54
2022/02/06 00:53:47;;;;;;;5.82;1.90;;;;;;;5.82;97.08;100633.19;681600;28;2122;-54
2022/02/06 00:54:07;;;;;;;5.60;1.70;;;;;;;5.92;96.00;100640.22;678985;28;1616;-58
2022/02/06 00:54:27;;;;;;;7.27;1.70;;;;;;;5.96;95.71;100618.66;680709;28;1461;-57
2022/02/06 00:54:48;;;;;;;8.10;2.17;;;;;;;5.93;95.18;100623.81;681169;28;4450;-54
2022/02/06 00:55:08;;;;;;;6.23;1.80;;;;;;;5.89;95.70;100629.81;681304;28;1260;-53
2022/02/06 00:55:29;;;;;;;5.30;1.60;;;;;;;5.84;96.21;100627.13;681764;28;1436;-55
2022/02/06 00:55:49;;;;;;;5.73;2.20;;;;;;;5.84;96.45;100626.28;681851;28;1252;-56
2022/02/06 00:56:10;;;;;;;5.53;2.13;;;;;;;5.80;96.26;100628.84;682400;28;1556;-53
2022/02/06 00:56:30;;;;;;;6.88;2.20;;;;;;;5.87;96.49;100628.91;682369;28;3248;-56
2022/02/06 00:56:51;;;;;;;6.47;2.23;;;;;;;5.86;95.96;100643.63;679907;28;1236;-56
2022/02/06 00:57:11;;;;;;;6.30;1.85;;;;;;;5.82;96.64;100630.59;680210;28;1185;-54
2022/02/06 00:57:32;;;;;;;6.37;1.97;;;;;;;5.84;96.52;100639.25;681954;28;1402;-52
2022/02/06 00:57:52;;;;;;;5.63;2.00;;;;;;;5.86;97.03;100625.44;677412;28;4307;-57
2022/02/06 00:58:12;;;;;;;5.67;1.87;;;;;;;5.86;96.63;100625.44;678572;28;1241;-52
2022/02/06 00:58:33;;;;;;;6.25;1.90;;;;;;;5.83;97.76;100633.19;679401;29;1383;-52
2022/02/06 00:58:53;;;;;;;7.27;2.07;;;;;;;5.91;96.17;100620.31;678906;29;1367;-55
2022/02/06 00:59:13;;;;;;;7.97;1.80;;;;;;;5.96;95.36;100626.44;678056;28;3554;-55
2022/02/06 00:59:34;;;;;;;7.63;1.87;;;;;;;5.93;95.87;100629.00;676320;29;3617;-53
2022/02/06 00:59:54;;;;;;;5.83;1.83;;;;;;;5.91;95.60;100620.31;678344;28;1244;-52
2022/02/06 01:00:15;;;;;;;7.47;2.00;;;;;;;5.85;95.96;100621.09;677898;28;1308;-56
2022/02/06 01:00:35;;;;;;;7.33;2.00;;;;;;;5.89;96.19;100616.84;678034;29;1555;-56
2022/02/06 01:00:56;;;;;;;7.50;1.97;;;;;;;5.83;97.09;100612.44;677581;28;5500;-55
2022/02/06 01:01:16;;;;;;;6.78;1.92;;;;;;;5.91;96.70;100612.53;680520;28;1276;-56
2022/02/06 01:01:41;;;;;;;6.83;1.90;;;;;;;5.93;96.06;100609.13;681111;28;1403;-56
2022/02/06 01:02:01;;;;;;;6.30;1.98;;;;;;;5.95;96.35;100612.63;680651;28;2046;-57
2022/02/06 01:02:22;;;;;;;7.63;2.00;;;;;;;5.97;95.78;100616.13;680748;28;3831;-55
2022/02/06 01:02:43;;;;;;;7.05;1.90;;;;;;;6.01;95.53;100621.34;681295;28;1317;-53
2022/02/06 01:03:03;;;;;;;6.28;1.83;;;;;;;6.02;94.40;100612.72;680297;28;1395;-53
2022/02/06 01:03:23;;;;;;;7.03;2.00;;;;;;;5.99;94.91;100618.72;680642;28;1493;-52
2022/02/06 01:03:44;;;;;;;6.28;1.92;;;;;;;6.00;94.86;100625.69;682277;28;1632;-60
2022/02/06 01:04:04;;;;;;;6.87;2.10;;;;;;;5.99;94.82;100620.47;680454;28;4596;-53
2022/02/06 01:04:25;;;;;;;6.70;2.10;;;;;;;6.00;94.79;100609.25;682346;28;1447;-56
2022/02/06 01:04:45;;;;;;;6.03;1.90;;;;;;;5.96;95.41;100616.94;681828;28;1580;-55
2022/02/06 01:05:06;;;;;;;7.38;2.00;;;;;;;5.90;95.40;100616.00;680898;28;3044;-51
2022/02/06 01:05:26;;;;;;;7.37;1.97;;;;;;;5.88;95.34;100618.53;680304;28;1731;-53
2022/02/06 01:05:47;;;;;;;7.68;1.98;;;;;;;5.86;95.76;100604.69;680828;28;1752;-53
2022/02/06 01:06:07;;;;;;;6.88;1.90;;;;;;;5.87;96.65;100616.81;681576;28;1796;-56
2022/02/06 01:06:27;;;;;;;7.47;2.10;;;;;;;5.91;96.43;100610.84;682413;28;1450;-55
2022/02/06 01:06:48;;;;;;;6.37;2.10;;;;;;;5.99;95.10;100613.53;681544;28;4345;-52
2022/02/06 01:07:08;;;;;;;6.27;1.90;;;;;;;6.01;94.86;100611.84;681188;28;1232;-55
2022/02/06 01:07:29;;;;;;;7.60;2.10;;;;;;;6.03;94.58;100617.06;681071;28;1399;-54
2022/02/06 01:07:53;;;;;;;8.00;2.20;;;;;;;5.96;95.35;100618.66;681179;28;3436;-56
2022/02/06 01:08:14;;;;;;;5.50;1.88;;;;;;;6.01;94.76;100609.25;679675;28;1205;-54
2022/02/06 01:08:34;;;;;;;6.60;1.90;;;;;;;6.11;94.18;100607.66;681469;28;1244;-54
2022/02/06 01:08:54;;;;;;;7.70;1.90;;;;;;;6.05;95.22;100611.03;681984;28;1918;-52
2022/02/06 01:09:18;;;;;;;7.70;1.90;;;;;;;6.04;94.92;100611.03;680264;28;1364;-56
2022/02/06 01:09:39;;;;;;;5.38;1.75;;;;;;;5.99;95.08;100608.34;679635;28;1471;-51
2022/02/06 01:09:59;;;;;;;5.70;1.83;;;;;;;6.01;95.52;100605.78;681025;28;4585;-55
2022/02/06 01:10:20;;;;;;;5.18;1.90;;;;;;;6.07;93.71;100598.94;681822;28;1395;-53
2022/02/06 01:10:40;;;;;;;6.80;1.90;;;;;;;6.09;93.96;100605.03;677830;29;1871;-55
2022/02/06 01:11:05;;;;;;;8.02;2.13;;;;;;;6.07;94.19;100601.53;676250;29;4179;-52
2022/02/06 01:11:26;;;;;;;6.13;2.03;;;;;;;6.04;95.18;100601.50;675445;29;1531;-55
2022/02/06 01:11:48;;;;;;;6.95;2.15;;;;;;;6.05;94.70;100598.06;676928;29;1435;-51
2022/02/06 01:12:09;;;;;;;8.00;2.25;;;;;;;6.06;94.27;100591.13;675161;29;1402;-55
2022/02/06 01:12:32;;;;;;;5.63;2.05;;;;;;;6.10;94.33;100590.31;677061;29;1459;-55
2022/02/06 01:13:01;;;;;;;5.88;1.90;;;;;;;6.05;94.84;100590.28;678690;28;4499;-55
2022/02/06 01:13:28;;;;;;;8.77;2.10;;;;;;;6.03;94.90;100593.69;680022;28;3022;-55
2022/02/06 01:15:01;;;;;;;5.57;1.97;;;;;;;6.05;95.13;100595.47;681728;28;1518;-56
2022/02/06 01:15:27;;;;;;;6.18;2.05;;;;;;;6.18;94.15;100590.44;680216;28;1474;-51
2022/02/06 01:15:59;;;;;;;6.18;1.98;;;;;;;6.11;95.00;100598.13;680223;28;4431;-54
2022/02/06 01:16:25;;;;;;;8.43;2.13;;;;;;;6.02;95.20;100600.59;680715;28;2060;-54
2022/02/06 01:16:57;;;;;;;6.75;2.20;;;;;;;6.01;96.08;100585.91;680547;28;2582;-55
2022/02/06 01:17:26;;;;;;;8.98;2.40;;;;;;;6.01;95.54;100593.69;672546;29;1408;-52
2022/02/06 01:18:06;;;;;;;6.45;1.98;;;;;;;6.02;94.46;100590.22;672912;29;1629;-52
2022/02/06 01:18:55;;;;;;;5.32;2.00;;;;;;;6.07;93.74;100591.16;673174;29;1343;-55
2022/02/06 01:19:16;;;;;;;9.57;2.30;;;;;;;6.11;94.09;100582.56;676486;28;4936;-55
2022/02/06 01:19:51;;;;;;;5.47;1.65;;;;;;;6.20;93.63;100583.53;679851;28;1236;-56
2022/02/06 01:20:17;;;;;;;5.53;1.90;;;;;;;6.29;93.54;100594.03;677361;28;1296;-56
2022/02/06 01:20:43;;;;;;;6.50;2.15;;;;;;;6.25;93.78;100579.25;677420;29;1474;-56
2022/02/06 01:21:14;;;;;;;7.18;2.03;;;;;;;6.24;93.36;100586.16;677379;28;1420;-54
2022/02/06 01:22:00;;;;;;;5.65;2.05;;;;;;;6.20;93.65;100591.31;675249;29;1403;-54
2022/02/06 01:22:24;;;;;;;5.80;1.83;;;;;;;6.13;93.93;100591.25;677505;29;4832;-54
2022/02/06 01:22:58;;;;;;;7.35;2.15;;;;;;;6.07;93.62;100582.50;677836;29;2055;-54
2022/02/06 01:23:41;;;;;;;7.03;2.25;;;;;;;6.07;93.99;100591.16;676617;29;1396;-52
2022/02/06 01:24:37;;;;;;;6.78;2.17;;;;;;;6.08;94.97;100587.72;676989;28;1572;-55
2022/02/06 01:24:55;;;;;;;7.38;2.25;;;;;;;6.08;94.69;100585.13;678216;28;4180;-54
2022/02/06 01:25:22;;;;;;;6.90;2.40;;;;;;;6.05;95.18;100587.69;680466;28;4870;-54
2022/02/06 01:26:24;;;;;;;7.03;1.90;;;;;;;6.22;93.74;100584.44;682060;28;1299;-55
2022/02/06 01:26:53;;;;;;;6.72;1.80;;;;;;;6.20;93.37;100584.38;681389;28;1430;-55
2022/02/06 01:27:19;;;;;;;6.57;2.10;;;;;;;6.26;93.51;100586.22;680878;28;1240;-55
2022/02/06 01:28:05;;;;;;;7.20;2.08;;;;;;;6.20;94.55;100578.31;682093;28;1395;-55
2022/02/06 01:28:27;;;;;;;6.15;2.10;;;;;;;6.18;94.62;100580.06;679249;28;4738;-51
2022/02/06 01:28:53;;;;;;;5.82;2.10;;;;;;;6.19;94.37;100582.66;682141;28;1498;-59
2022/02/06 01:29:50;;;;;;;6.87;2.20;;;;;;;6.24;94.04;100568.00;681130;28;1376;-55
2022/02/06 01:30:20;;;;;;;5.95;2.17;;;;;;;6.22;94.43;100584.44;680608;28;1415;-53
2022/02/06 01:30:50;;;;;;;6.93;2.17;;;;;;;6.30;93.91;100573.28;680888;28;3588;-56
2022/02/06 01:32:02;;;;;;;6.73;2.07;;;;;;;6.31;93.36;100579.31;678889;29;1589;-55
2022/02/06 01:32:30;;;;;;;7.95;2.47;;;;;;;6.42;93.14;100580.31;678209;29;1411;-55
2022/02/06 01:32:55;;;;;;;6.20;2.03;;;;;;;6.41;93.31;100575.09;677728;29;1507;-56
2022/02/06 01:33:22;;;;;;;7.65;2.28;;;;;;;6.33;93.94;100567.25;676678;29;1947;-53
2022/02/06 01:33:48;;;;;;;8.76;2.76;;;;;;;6.34;93.36;100569.00;677575;29;1581;-52
2022/02/06 01:34:11;;;;;;;6.80;2.00;;;;;;;6.31;93.37;100574.13;677061;28;4817;-55
2022/02/06 01:34:42;;;;;;;6.03;1.90;;;;;;;6.30;93.97;100572.41;675807;29;1471;-52
2022/02/06 01:35:11;;;;;;;6.25;2.05;;;;;;;6.26;94.00;100562.84;676441;28;1439;-53
2022/02/06 01:35:42;;;;;;;6.82;2.53;;;;;;;6.25;93.98;100564.53;677531;29;1506;-54
2022/02/06 01:36:32;;;;;;;6.35;2.42;;;;;;;6.27;94.05;100561.97;679104;28;3515;-55
2022/02/06 01:37:39;;;;;;;7.45;2.15;;;;;;;6.38;93.63;100547.38;681301;28;1379;-54
2022/02/06 01:38:12;;;;;;;6.75;2.05;;;;;;;6.32;94.04;100555.09;681595;28;1427;-55
2022/02/06 01:38:48;;;;;;;8.10;2.47;;;;;;;6.30;95.30;100555.09;680075;28;1434;-59
2022/02/06 01:39:28;;;;;;;6.78;2.20;;;;;;;6.38;94.05;100557.75;680534;28;4792;-54
2022/02/06 01:40:34;;;;;;;6.40;2.30;;;;;;;6.34;93.82;100556.00;681967;28;1558;-53
2022/02/06 01:41:24;;;;;;;6.95;2.15;;;;;;;6.32;94.27;100554.25;680474;28;1406;-54
2022/02/06 01:41:47;;;;;;;8.20;2.15;;;;;;;6.34;94.15;100560.31;680801;28;3325;-53
2022/02/06 01:42:11;;;;;;;7.03;2.22;;;;;;;6.34;94.36;100550.81;681126;28;2209;-51
2022/02/06 01:43:06;;;;;;;6.38;2.10;;;;;;;6.34;94.39;100535.25;679953;28;4319;-55
2022/02/06 01:43:36;;;;;;;6.10;2.17;;;;;;;6.42;94.21;100546.53;681247;28;1714;-56
2022/02/06 01:44:06;;;;;;;7.68;2.25;;;;;;;6.46;93.86;100552.66;681604;28;1319;-59
2022/02/06 01:45:25;;;;;;;7.13;2.10;;;;;;;6.40;93.92;100548.28;680993;28;3744;-52
2022/02/06 01:46:43;;;;;;;5.35;2.15;;;;;;;6.37;94.61;100549.94;677938;29;1505;-54
2022/02/06 01:57:24;;;;;;;7.47;2.10;;;;;;;6.25;94.95;100545.50;677708;28;1463;-55
2022/02/06 02:00:31;;;;;;;8.57;2.22;;;;;;;6.42;94.26;100525.78;681375;28;1686;-54
2022/02/06 02:03:00;;;;;;;7.90;2.83;;;;;;;6.45;93.89;100515.44;678044;29;1521;-59
2022/02/06 02:03:38;;;;;;;5.78;2.10;;;;;;;6.35;94.49;100502.34;681868;28;1457;-56
2022/02/06 02:04:14;;;;;;;7.65;2.53;;;;;;;6.45;93.72;100512.84;680256;28;4352;-53
2022/02/06 02:08:04;;;;;;;7.05;2.58;;;;;;;6.54;93.30;100503.41;678701;29;1264;-57
2022/02/06 02:16:12;;;;;;;8.52;2.45;;;;;;;6.57;93.89;100483.50;682038;28;1391;-54
2022/02/06 02:18:50;;;;;;;7.50;2.33;;;;;;;6.34;95.07;100474.63;680586;28;1522;-52
2022/02/06 02:19:09;;;;;;;6.00;2.10;;;;;;;6.48;94.88;100496.41;679348;28;5020;-52
2022/02/06 02:20:47;;;;;;;6.68;2.30;;;;;;;6.54;94.07;100485.22;669689;29;1636;-54
2022/02/06 02:22:44;;;;;;;7.60;2.53;;;;;;;6.50;95.21;100476.50;679530;28;4589;-51
2022/02/06 02:28:06;;;;;;;6.07;2.33;;;;;;;6.21;98.18;100453.75;681547;28;3491;-55
2022/02/06 02:31:08;;;;;;;7.04;2.20;;;;;;;6.43;98.34;100447.03;681920;28;1661;-55
2022/02/06 02:43:06;;;;;;;6.32;2.60;;;;;;;6.29;97.87;100418.34;682276;28;1391;-54
2022/02/06 02:44:17;;;;;;;7.40;2.50;;;;;;;6.38;96.86;100425.31;681487;28;5007;-54
2022/02/06 02:46:11;;;;;;;6.95;2.22;;;;;;;6.34;98.05;100418.41;680457;28;4601;-52
2022/02/06 02:46:41;;;;;;;6.35;2.30;;;;;;;6.28;97.60;100421.78;678186;29;1398;-54
2022/02/06 02:47:21;;;;;;;5.50;2.30;;;;;;;6.27;97.86;100417.47;677597;28;3396;-56
2022/02/06 02:47:47;;;;;;;7.00;2.20;;;;;;;6.35;97.70;100416.66;679585;28;1276;-55
2022/02/06 02:48:07;;;;;;;7.18;2.25;;;;;;;6.40;97.51;100413.25;678850;28;1620;-54
2022/02/06 02:48:28;;;;;;;8.05;2.40;;;;;;;6.44;97.34;100417.59;680824;28;1506;-54
2022/02/06 02:48:48;;;;;;;8.37;2.30;;;;;;;6.40;96.73;100415.00;680991;28;4604;-54
2022/02/06 02:49:15;;;;;;;5.63;2.25;;;;;;;6.43;96.61;100408.06;680759;28;2056;-54
2022/02/06 02:49:35;;;;;;;6.38;2.40;;;;;;;6.43;96.00;100413.25;681965;28;1263;-52
2022/02/06 02:49:59;;;;;;;7.03;2.43;;;;;;;6.44;96.57;100409.81;681649;28;3251;-52
2022/02/06 02:50:23;;;;;;;7.60;2.58;;;;;;;6.39;97.00;100410.63;680500;28;1215;-55
2022/02/06 02:50:50;;;;;;;7.75;2.70;;;;;;;6.34;97.08;100415.81;681636;28;1522;-53
2022/02/06 02:51:12;;;;;;;7.57;2.40;;;;;;;6.33;97.81;100402.78;683041;28;1315;-56
2022/02/06 02:51:37;;;;;;;6.65;2.10;;;;;;;6.34;98.36;100412.31;680296;28;1426;-54
2022/02/06 02:52:03;;;;;;;6.35;2.40;;;;;;;6.33;98.12;100414.06;680901;28;4329;-53
2022/02/06 02:53:19;;;;;;;5.65;2.10;;;;;;;6.47;96.73;100404.63;679757;28;1249;-56
2022/02/06 02:53:47;;;;;;;6.75;2.40;;;;;;;6.52;96.23;100403.81;681094;28;1466;-55
2022/02/06 02:54:11;;;;;;;6.97;2.30;;;;;;;6.51;95.06;100407.25;681636;28;1558;-55
2022/02/06 02:54:34;;;;;;;5.50;2.05;;;;;;;6.59;95.31;100401.28;679010;29;1204;-58
2022/02/06 02:55:16;;;;;;;6.90;2.15;;;;;;;6.56;95.23;100401.25;677469;28;4380;-52
2022/02/06 02:55:53;;;;;;;9.05;2.60;;;;;;;6.45;96.25;100395.97;677113;29;3522;-53
2022/02/06 02:56:32;;;;;;;6.20;2.28;;;;;;;6.43;96.84;100395.09;679563;28;1211;-51
2022/02/06 02:57:06;;;;;;;7.10;2.35;;;;;;;6.58;95.58;100393.47;681522;28;1423;-54
2022/02/06 02:57:34;;;;;;;8.00;2.45;;;;;;;6.50;96.46;100396.00;681398;28;1335;-55
2022/02/06 02:59:09;;;;;;;6.85;2.30;;;;;;;6.38;97.33;100394.16;678439;28;1431;-53
2022/02/06 02:59:50;;;;;;;8.15;2.47;;;;;;;6.32;97.83;100391.53;676709;29;1586;-54
2022/02/06 03:01:54;;;;;;;5.88;2.45;;;;;;;6.35;98.12;100388.97;681156;28;1000;-57
2022/02/06 03:02:15;;;;;;;7.70;2.42;;;;;;;6.35;98.93;100399.34;681298;28;1329;-55
2022/02/06 03:02:35;;;;;;;7.13;2.40;;;;;;;6.32;98.36;100388.09;680171;28;1241;-55
2022/02/06 03:03:09;;;;;;;6.15;2.20;;;;;;;6.29;98.45;100391.53;681054;28;1498;-55
2022/02/06 03:03:33;;;;;;;6.32;2.20;;;;;;;6.31;98.98;100376.81;681202;28;1312;-55
2022/02/06 03:03:53;;;;;;;5.70;2.20;;;;;;;6.35;98.33;100391.56;679231;28;4721;-55
2022/02/06 03:04:14;;;;;;;7.15;2.50;;;;;;;6.29;98.60;100388.94;680546;28;3680;-56
2022/02/06 03:04:34;;;;;;;8.17;2.50;;;;;;;6.26;98.68;100383.72;677951;28;1182;-55
2022/02/06 03:04:57;;;;;;;7.90;2.20;;;;;;;6.26;98.49;100388.91;675475;29;1247;-51
2022/02/06 03:05:17;;;;;;;7.85;2.50;;;;;;;6.25;98.55;100388.03;675933;29;1375;-56
2022/02/06 03:05:37;;;;;;;7.27;2.30;;;;;;;6.22;98.65;100379.34;675716;29;1384;-54
2022/02/06 03:06:00;;;;;;;7.15;2.30;;;;;;;6.21;99.20;100380.19;672076;29;1313;-55
2022/02/06 03:06:21;;;;;;;8.43;2.40;;;;;;;6.18;99.33;100385.38;674798;29;1475;-50
2022/02/06 03:06:41;;;;;;;7.57;2.50;;;;;;;6.14;99.81;100376.69;676029;29;3306;-51
2022/02/06 03:07:03;;;;;;;7.35;2.40;;;;;;;6.25;100.00;100379.38;674136;29;4378;-54
2022/02/06 03:07:24;;;;;;;7.88;2.40;;;;;;;6.30;99.25;100385.47;676245;29;1411;-52
2022/02/06 03:07:44;;;;;;;7.83;2.50;;;;;;;6.26;99.49;100388.91;677327;29;1423;-53
2022/02/06 03:08:06;;;;;;;6.55;2.42;;;;;;;6.38;98.99;100396.78;678560;28;1479;-52
2022/02/06 03:08:28;;;;;;;7.15;2.47;;;;;;;6.35;98.09;100380.31;678730;28;1491;-55
2022/02/06 03:08:50;;;;;;;8.32;2.40;;;;;;;6.39;97.47;100380.34;679803;28;1269;-54
2022/02/06 03:09:10;;;;;;;7.55;2.28;;;;;;;6.39;97.86;100380.34;680855;28;1996;-52
2022/02/06 03:09:37;;;;;;;7.00;2.33;;;;;;;6.34;97.91;100374.25;680811;28;3605;-56